Terminal Aerodrome Forecast
Issued by NWS

Home | Current Version | Previous Version | Text Only | Print | Product List | Glossary On
Versions: 1 2 3 4 5 6 7 8 9 10 11 12 13 14 15 16 17 18 19 20 21 22 23 24 25 26 27 28 29 30 31 32 33 34 35 36 37 38 39 40
033
FTUS43 KGRB 231730
TAFRHI
TAF
KRHI 231730Z 2318/2418 29006KT P6SM SCT100
     FM240000 21004KT P6SM SCT100
     FM240600 20008KT P6SM SCT100 WS015/23032KT
     FM241500 21012G21KT P6SM FEW080 SCT150
     FM241700 22011G15KT P6SM FEW050 BKN080=

USA.gov is the U.S. government's official web portal to all federal, state and local government web resources and services.